Time;durP1;ratioP1;P1;durP2;ratioP2;P2;SDS_P1;SDS_P2;PMS_P1;PMS_P2;Temp;Humidity;BMP_temperature;BMP_pressure;BME280_temperature;BME280_humidity;BME280_pressure;Samples;Min_cycle;Max_cycle;Signal;HPM_P1;HPM_P2
2022/04/28 00:01:07;;;;;;;10.40;6.00;;;;;;;;;;5017486;28;20038;-64
2022/04/28 00:03:33;;;;;;;13.05;6.43;;;;;;;;;;5018400;28;20034;-64
2022/04/28 00:05:59;;;;;;;12.10;6.63;;;;;;;;;;5019391;28;20483;-64
2022/04/28 00:08:25;;;;;;;9.55;6.28;;;;;;;;;;5020821;28;20042;-64
2022/04/28 00:10:51;;;;;;;13.40;7.00;;;;;;;;;;5025565;28;20045;-63
2022/04/28 00:13:18;;;;;;;13.20;6.78;;;;;;;;;;5012075;28;20048;-64
2022/04/28 00:15:45;;;;;;;12.27;6.55;;;;;;;;;;5005238;28;20045;-64
2022/04/28 00:18:11;;;;;;;13.23;6.75;;;;;;;;;;5006846;28;20041;-64
2022/04/28 00:20:37;;;;;;;17.98;6.93;;;;;;;;;;5011504;28;20034;-63
2022/04/28 00:23:03;;;;;;;12.90;7.43;;;;;;;;;;5010001;28;20488;-64
2022/04/28 00:25:29;;;;;;;12.75;6.60;;;;;;;;;;5011102;28;20088;-64
2022/04/28 00:27:55;;;;;;;13.88;7.22;;;;;;;;;;5009387;28;20034;-63
2022/04/28 00:30:21;;;;;;;15.80;7.68;;;;;;;;;;5010462;28;20412;-64
2022/04/28 00:32:47;;;;;;;13.25;7.15;;;;;;;;;;5012158;28;20060;-64
2022/04/28 00:35:13;;;;;;;14.07;7.85;;;;;;;;;;5010097;28;20081;-64
2022/04/28 00:37:40;;;;;;;16.58;7.25;;;;;;;;;;5009549;28;20049;-64
2022/04/28 00:40:06;;;;;;;13.93;7.07;;;;;;;;;;5008801;28;20404;-64
2022/04/28 00:42:32;;;;;;;16.15;7.40;;;;;;;;;;5012386;28;20038;-64
2022/04/28 00:44:59;;;;;;;12.43;6.57;;;;;;;;;;5009125;28;20180;-64
2022/04/28 00:50:38;;;;;;;15.82;7.45;;;;;;;;;;5008873;28;20423;-64
2022/04/28 00:52:59;;;;;;;12.50;7.10;;;;;;;;;;5009774;28;20038;-64
2022/04/28 00:55:25;;;;;;;14.20;7.32;;;;;;;;;;5012489;28;20158;-64
2022/04/28 00:57:51;;;;;;;15.40;7.53;;;;;;;;;;5010475;28;20588;-64
2022/04/28 01:00:17;;;;;;;16.65;8.05;;;;;;;;;;4993158;28;20084;-64
2022/04/28 01:02:43;;;;;;;14.30;7.97;;;;;;;;;;5010427;28;20038;-64
2022/04/28 01:05:10;;;;;;;14.65;7.40;;;;;;;;;;5007638;28;20041;-64
2022/04/28 01:07:36;;;;;;;13.05;7.47;;;;;;;;;;5010698;28;20161;-64
2022/04/28 01:10:03;;;;;;;13.60;7.65;;;;;;;;;;5010515;28;20674;-64
2022/04/28 01:12:29;;;;;;;10.40;5.20;;;;;;;;;;5009975;28;20048;-64
2022/04/28 01:14:56;;;;;;;10.73;6.03;;;;;;;;;;5009252;28;20033;-64
2022/04/28 01:17:22;;;;;;;11.52;6.38;;;;;;;;;;5008993;28;20448;-64
2022/04/28 01:19:48;;;;;;;13.73;6.70;;;;;;;;;;4989636;28;20042;-64
2022/04/28 01:22:14;;;;;;;10.80;6.45;;;;;;;;;;5062497;22;20503;-62
2022/04/28 01:24:40;;;;;;;13.32;6.57;;;;;;;;;;5060920;28;20394;-62
2022/04/28 01:27:06;;;;;;;10.68;6.78;;;;;;;;;;5061298;28;20091;-62
2022/04/28 01:29:33;;;;;;;12.63;7.72;;;;;;;;;;5062345;28;20492;-62
2022/04/28 01:31:59;;;;;;;19.15;7.70;;;;;;;;;;5057883;28;20033;-62
2022/04/28 01:34:25;;;;;;;15.40;7.55;;;;;;;;;;5052760;28;20041;-62
2022/04/28 01:36:51;;;;;;;16.98;6.93;;;;;;;;;;5030961;28;20128;-62
2022/04/28 01:39:17;;;;;;;11.52;7.70;;;;;;;;;;5044186;28;20060;-62
2022/04/28 01:41:43;;;;;;;14.88;8.25;;;;;;;;;;5040580;28;20499;-62
2022/04/28 01:44:10;;;;;;;12.15;7.40;;;;;;;;;;5047707;28;20045;-62
2022/04/28 01:46:36;;;;;;;12.15;7.97;;;;;;;;;;5046697;28;20041;-62
2022/04/28 01:49:02;;;;;;;13.27;8.05;;;;;;;;;;5038919;28;20037;-62
2022/04/28 01:57:09;;;;;;;17.35;8.70;;;;;;;;;;5035227;28;20053;-62
2022/04/28 01:59:35;;;;;;;13.98;8.48;;;;;;;;;;5038207;28;20045;-62
2022/04/28 02:02:01;;;;;;;15.43;7.72;;;;;;;;;;5035820;28;20041;-62
2022/04/28 02:04:27;;;;;;;12.63;7.72;;;;;;;;;;5038074;28;20028;-62
2022/04/28 02:06:53;;;;;;;17.23;7.80;;;;;;;;;;5038894;28;20037;-62
2022/04/28 02:09:19;;;;;;;15.15;8.35;;;;;;;;;;5032561;28;20045;-62
2022/04/28 02:11:45;;;;;;;16.05;8.77;;;;;;;;;;5035757;28;20053;-62
2022/04/28 02:14:11;;;;;;;12.77;7.75;;;;;;;;;;5039268;28;20037;-62
2022/04/28 02:16:36;;;;;;;13.77;7.75;;;;;;;;;;5049921;28;20036;-61
2022/04/28 02:19:03;;;;;;;14.50;8.43;;;;;;;;;;5042633;28;20417;-62
2022/04/28 02:21:29;;;;;;;16.42;7.85;;;;;;;;;;5055267;28;20037;-62
2022/04/28 02:23:55;;;;;;;14.18;7.70;;;;;;;;;;5047880;28;20029;-62
2022/04/28 02:26:21;;;;;;;15.38;7.95;;;;;;;;;;5047906;28;20043;-62
2022/04/28 02:28:47;;;;;;;15.55;8.65;;;;;;;;;;5045585;28;20033;-62
2022/04/28 02:31:13;;;;;;;12.73;7.68;;;;;;;;;;5047912;28;20044;-62
2022/04/28 02:33:39;;;;;;;11.60;7.47;;;;;;;;;;5044528;28;20045;-62
2022/04/28 02:36:05;;;;;;;13.82;7.32;;;;;;;;;;5042126;28;20052;-62
2022/04/28 02:38:32;;;;;;;12.32;7.85;;;;;;;;;;5050335;28;20422;-62
2022/04/28 02:40:58;;;;;;;11.88;8.15;;;;;;;;;;5050524;28;20048;-62
2022/04/28 02:43:24;;;;;;;11.95;7.45;;;;;;;;;;5049440;28;20029;-62
2022/04/28 02:45:50;;;;;;;12.85;7.97;;;;;;;;;;5050845;28;20045;-62
2022/04/28 02:48:16;;;;;;;12.68;7.38;;;;;;;;;;5047642;28;20044;-62
2022/04/28 02:50:42;;;;;;;13.93;7.97;;;;;;;;;;5051180;28;20045;-62
2022/04/28 02:53:08;;;;;;;12.52;8.38;;;;;;;;;;5043477;28;20065;-62
2022/04/28 02:55:34;;;;;;;14.00;8.40;;;;;;;;;;5019784;28;20103;-61
2022/04/28 02:58:00;;;;;;;14.57;7.82;;;;;;;;;;5037108;28;20041;-62
2022/04/28 03:00:26;;;;;;;16.23;8.38;;;;;;;;;;5048257;28;20029;-62
2022/04/28 03:02:52;;;;;;;15.95;8.60;;;;;;;;;;5050075;28;20166;-62
2022/04/28 03:05:18;;;;;;;13.88;8.27;;;;;;;;;;5046578;28;20118;-61
2022/04/28 03:10:49;;;;;;;15.02;9.05;;;;;;;;;;5044770;28;20064;-61
2022/04/28 03:13:24;;;;;;;14.25;8.07;;;;;;;;;;5049491;28;20123;-63
2022/04/28 03:15:50;;;;;;;16.02;7.88;;;;;;;;;;5029575;28;20049;-61
2022/04/28 03:18:17;;;;;;;12.77;7.95;;;;;;;;;;5022610;28;20087;-61
2022/04/28 03:20:43;;;;;;;15.23;8.40;;;;;;;;;;5029440;28;20051;-61
2022/04/28 03:23:11;;;;;;;12.07;8.57;;;;;;;;;;5048000;28;20072;-61
2022/04/28 03:25:37;;;;;;;15.85;8.75;;;;;;;;;;5056224;28;20032;-61
2022/04/28 03:28:04;;;;;;;12.88;8.38;;;;;;;;;;5058877;28;20516;-61
2022/04/28 03:30:30;;;;;;;14.25;8.80;;;;;;;;;;5053085;28;21116;-62
2022/04/28 03:32:56;;;;;;;16.23;9.25;;;;;;;;;;5054128;28;20033;-62
2022/04/28 03:35:22;;;;;;;11.55;7.78;;;;;;;;;;5054718;28;20048;-62
2022/04/28 03:37:48;;;;;;;13.65;8.20;;;;;;;;;;5051195;28;20037;-62
2022/04/28 03:40:14;;;;;;;14.07;7.90;;;;;;;;;;5053171;28;20036;-62
2022/04/28 03:42:41;;;;;;;17.73;9.35;;;;;;;;;;5053751;28;20064;-62
2022/04/28 03:45:07;;;;;;;15.23;8.75;;;;;;;;;;5053791;28;20033;-62
2022/04/28 03:47:33;;;;;;;15.63;8.95;;;;;;;;;;5058610;28;20059;-62
2022/04/28 03:49:59;;;;;;;13.23;8.88;;;;;;;;;;5056075;28;20041;-62
2022/04/28 03:52:25;;;;;;;15.55;8.48;;;;;;;;;;5052840;28;20441;-62
2022/04/28 03:54:51;;;;;;;16.00;8.95;;;;;;;;;;5052603;28;20033;-62
2022/04/28 03:57:17;;;;;;;18.48;9.02;;;;;;;;;;5051703;28;20044;-62
2022/04/28 03:59:43;;;;;;;16.48;8.90;;;;;;;;;;5054903;28;20660;-62
2022/04/28 04:02:10;;;;;;;14.95;9.43;;;;;;;;;;5047840;28;20045;-62
2022/04/28 04:04:36;;;;;;;15.18;9.10;;;;;;;;;;5035000;28;20098;-62
2022/04/28 04:07:02;;;;;;;19.70;10.38;;;;;;;;;;5055342;28;20049;-62
2022/04/28 04:09:28;;;;;;;19.25;9.88;;;;;;;;;;5030132;28;20072;-62
2022/04/28 04:11:54;;;;;;;15.95;9.35;;;;;;;;;;5029943;28;20124;-62
2022/04/28 04:14:20;;;;;;;19.23;9.48;;;;;;;;;;5047415;28;20488;-62
2022/04/28 04:16:46;;;;;;;18.48;10.30;;;;;;;;;;5035900;28;20048;-62
2022/04/28 04:19:11;;;;;;;18.15;10.95;;;;;;;;;;5053430;28;20068;-62
2022/04/28 04:21:38;;;;;;;21.05;9.70;;;;;;;;;;5044482;28;20120;-62
2022/04/28 04:24:05;;;;;;;15.57;9.63;;;;;;;;;;5050781;28;20045;-62
2022/04/28 04:26:31;;;;;;;22.23;10.52;;;;;;;;;;5055556;28;20482;-62
2022/04/28 04:28:56;;;;;;;19.00;9.48;;;;;;;;;;5053433;28;20032;-62
2022/04/28 04:34:07;;;;;;;20.08;10.25;;;;;;;;;;5050918;28;20406;-62
2022/04/28 04:36:33;;;;;;;14.48;9.52;;;;;;;;;;5052118;28;20044;-61
2022/04/28 04:38:59;;;;;;;18.08;9.05;;;;;;;;;;5052640;28;20037;-62
2022/04/28 04:41:25;;;;;;;16.50;9.30;;;;;;;;;;5052566;28;20064;-62
2022/04/28 04:43:51;;;;;;;13.93;9.18;;;;;;;;;;5050524;28;20479;-62
2022/04/28 04:46:17;;;;;;;16.17;9.45;;;;;;;;;;5050378;28;20033;-62
2022/04/28 04:48:43;;;;;;;14.75;8.90;;;;;;;;;;5052636;28;20045;-62
2022/04/28 04:51:09;;;;;;;14.05;9.02;;;;;;;;;;5051585;28;20123;-62
2022/04/28 04:53:35;;;;;;;17.33;9.30;;;;;;;;;;5052722;28;20125;-62
2022/04/28 04:56:01;;;;;;;17.83;8.73;;;;;;;;;;5051593;28;20041;-62
2022/04/28 04:58:27;;;;;;;18.05;9.63;;;;;;;;;;5047477;28;20042;-62
2022/04/28 05:00:54;;;;;;;15.05;9.23;;;;;;;;;;5032188;28;20068;-61
2022/04/28 05:03:20;;;;;;;14.82;8.60;;;;;;;;;;5048577;28;20037;-62
2022/04/28 05:05:46;;;;;;;16.63;8.65;;;;;;;;;;5048953;28;20036;-62
2022/04/28 05:08:14;;;;;;;16.48;8.70;;;;;;;;;;5059173;28;20087;-62
2022/04/28 05:10:40;;;;;;;16.33;9.18;;;;;;;;;;5044920;28;20041;-62
2022/04/28 05:13:08;;;;;;;16.80;8.80;;;;;;;;;;5053905;28;20475;-61
2022/04/28 05:15:34;;;;;;;19.23;10.18;;;;;;;;;;5048211;28;20056;-61
2022/04/28 05:18:00;;;;;;;17.08;10.10;;;;;;;;;;5049636;28;20520;-62
2022/04/28 05:20:26;;;;;;;21.77;9.80;;;;;;;;;;5051519;28;20111;-62
2022/04/28 05:22:52;;;;;;;20.05;10.07;;;;;;;;;;5047462;28;20037;-62
2022/04/28 05:25:18;;;;;;;21.88;10.30;;;;;;;;;;5025035;28;20061;-62
2022/04/28 05:27:44;;;;;;;15.63;9.52;;;;;;;;;;5052346;28;20090;-61
2022/04/28 05:30:10;;;;;;;16.30;9.85;;;;;;;;;;5049932;28;20398;-61
2022/04/28 05:32:36;;;;;;;15.07;9.10;;;;;;;;;;5052156;28;20041;-61
2022/04/28 05:35:02;;;;;;;17.08;10.18;;;;;;;;;;5050450;28;20090;-61
2022/04/28 05:37:28;;;;;;;15.38;9.27;;;;;;;;;;5052120;28;20037;-61
2022/04/28 05:39:54;;;;;;;18.55;9.35;;;;;;;;;;5049549;28;20037;-62
2022/04/28 05:42:20;;;;;;;16.45;9.18;;;;;;;;;;5052962;28;20040;-62
2022/04/28 05:47:31;;;;;;;16.50;9.27;;;;;;;;;;5043932;28;20048;-62
2022/04/28 05:49:57;;;;;;;15.15;8.63;;;;;;;;;;5051268;28;20402;-62
2022/04/28 05:52:23;;;;;;;17.63;9.65;;;;;;;;;;5048778;28;20427;-61
2022/04/28 05:54:49;;;;;;;18.65;9.18;;;;;;;;;;5037916;28;20501;-62
2022/04/28 05:57:15;;;;;;;16.67;9.70;;;;;;;;;;5053661;28;20049;-62
2022/04/28 05:59:41;;;;;;;15.10;9.35;;;;;;;;;;5053947;28;20048;-62
2022/04/28 06:02:07;;;;;;;18.38;9.55;;;;;;;;;;5053726;28;20040;-61
2022/04/28 06:04:33;;;;;;;18.55;9.85;;;;;;;;;;5050471;28;20408;-61
2022/04/28 06:06:59;;;;;;;17.95;10.90;;;;;;;;;;5049644;28;20037;-62
2022/04/28 06:09:25;;;;;;;15.25;10.02;;;;;;;;;;5054480;28;20041;-62
2022/04/28 06:11:51;;;;;;;17.58;10.40;;;;;;;;;;5029207;28;20051;-61
2022/04/28 06:14:17;;;;;;;16.90;10.10;;;;;;;;;;5050544;28;20116;-61
2022/04/28 06:16:43;;;;;;;21.85;10.63;;;;;;;;;;5051192;28;20477;-61
2022/04/28 06:19:09;;;;;;;21.45;10.77;;;;;;;;;;5051214;28;20039;-62
2022/04/28 06:21:35;;;;;;;23.70;10.73;;;;;;;;;;5053136;28;20482;-62
2022/04/28 06:24:01;;;;;;;19.65;10.70;;;;;;;;;;5041531;28;20029;-61
2022/04/28 06:26:27;;;;;;;20.08;10.05;;;;;;;;;;5048033;28;20040;-61
2022/04/28 06:28:53;;;;;;;18.73;10.52;;;;;;;;;;5051511;28;20120;-61
2022/04/28 06:31:19;;;;;;;16.25;9.02;;;;;;;;;;5030332;28;20127;-61
2022/04/28 06:33:45;;;;;;;18.52;9.63;;;;;;;;;;5036832;28;20399;-62
2022/04/28 06:36:11;;;;;;;19.30;10.27;;;;;;;;;;5038586;28;20041;-61
2022/04/28 06:38:37;;;;;;;17.88;9.15;;;;;;;;;;5038769;28;20457;-61
2022/04/28 06:41:03;;;;;;;19.65;10.20;;;;;;;;;;5048746;28;20037;-61
2022/04/28 06:43:29;;;;;;;17.52;9.32;;;;;;;;;;5020965;28;20033;-61
2022/04/28 06:46:13;;;;;;;14.88;9.15;;;;;;;;;;5040535;28;20033;-62
2022/04/28 06:48:39;;;;;;;15.80;8.40;;;;;;;;;;5046780;28;20044;-62
2022/04/28 06:51:05;;;;;;;18.42;9.27;;;;;;;;;;5049482;28;20419;-61
2022/04/28 06:53:31;;;;;;;16.35;9.07;;;;;;;;;;5051177;28;20037;-61
2022/04/28 06:55:57;;;;;;;15.43;9.63;;;;;;;;;;5046427;28;20083;-61
2022/04/28 06:58:23;;;;;;;16.08;9.57;;;;;;;;;;5050524;28;20053;-62
2022/04/28 07:00:49;;;;;;;15.35;8.98;;;;;;;;;;5049590;28;20379;-61
2022/04/28 07:03:16;;;;;;;18.60;8.35;;;;;;;;;;5048585;28;20040;-61
2022/04/28 07:05:42;;;;;;;14.10;8.05;;;;;;;;;;5046882;28;20515;-62
2022/04/28 07:08:08;;;;;;;17.10;8.27;;;;;;;;;;5051959;28;20151;-62
2022/04/28 07:10:37;;;;;;;16.00;8.70;;;;;;;;;;5054440;28;20041;-62
2022/04/28 07:13:03;;;;;;;15.52;8.32;;;;;;;;;;5048980;28;20037;-62
2022/04/28 07:15:29;;;;;;;17.05;8.50;;;;;;;;;;5053086;28;20044;-62
2022/04/28 07:17:55;;;;;;;12.43;7.32;;;;;;;;;;5033976;28;20052;-61
2022/04/28 07:20:21;;;;;;;12.98;7.43;;;;;;;;;;5054407;28;20036;-62
2022/04/28 07:22:47;;;;;;;15.57;8.23;;;;;;;;;;5032677;28;20037;-61
2022/04/28 07:25:13;;;;;;;17.10;8.15;;;;;;;;;;5047324;28;20501;-62
2022/04/28 07:27:39;;;;;;;12.63;7.22;;;;;;;;;;5053655;22;20186;-64
2022/04/28 07:30:05;;;;;;;15.48;8.10;;;;;;;;;;5079949;28;20044;-64
2022/04/28 07:32:32;;;;;;;11.82;7.50;;;;;;;;;;5073493;28;20033;-64
2022/04/28 07:34:58;;;;;;;15.07;8.15;;;;;;;;;;5072870;28;20048;-64
2022/04/28 07:37:24;;;;;;;16.10;6.03;;;;;;;;;;5072104;28;20119;-64
2022/04/28 07:39:50;;;;;;;12.32;6.35;;;;;;;;;;5073476;28;20041;-64
2022/04/28 07:42:16;;;;;;;13.25;6.65;;;;;;;;;;5069994;28;20441;-63
2022/04/28 07:44:42;;;;;;;11.80;6.28;;;;;;;;;;5067723;28;20116;-62
2022/04/28 07:47:08;;;;;;;16.20;7.00;;;;;;;;;;5069780;28;20032;-63
2022/04/28 07:49:36;;;;;;;17.02;5.93;;;;;;;;;;5073130;28;20044;-63
2022/04/28 07:52:02;;;;;;;10.30;5.50;;;;;;;;;;5072030;28;20048;-62
2022/04/28 07:54:28;;;;;;;12.38;6.40;;;;;;;;;;5072325;28;20050;-63
2022/04/28 07:56:54;;;;;;;14.40;5.97;;;;;;;;;;5072304;28;20037;-63
2022/04/28 07:59:20;;;;;;;12.55;6.50;;;;;;;;;;5073075;28;20043;-63
2022/04/28 08:01:46;;;;;;;15.60;6.18;;;;;;;;;;5069705;28;20037;-62
2022/04/28 08:04:12;;;;;;;11.65;5.22;;;;;;;;;;5070342;28;20094;-62
2022/04/28 08:06:38;;;;;;;13.27;5.32;;;;;;;;;;5071479;28;20449;-62
2022/04/28 08:09:04;;;;;;;10.35;5.13;;;;;;;;;;5069900;28;20040;-62
2022/04/28 08:11:31;;;;;;;8.23;4.95;;;;;;;;;;5073475;28;20040;-62
2022/04/28 08:13:56;;;;;;;10.07;5.07;;;;;;;;;;5072976;28;20036;-62
2022/04/28 08:16:22;;;;;;;9.02;4.28;;;;;;;;;;5071688;28;20055;-62
2022/04/28 08:18:49;;;;;;;9.95;4.53;;;;;;;;;;5073348;28;20040;-62
2022/04/28 08:21:15;;;;;;;13.73;5.30;;;;;;;;;;5071077;28;20039;-62
2022/04/28 08:23:41;;;;;;;14.90;5.47;;;;;;;;;;5073646;28;20063;-62
2022/04/28 08:26:07;;;;;;;8.90;4.82;;;;;;;;;;5072300;28;20033;-62
2022/04/28 08:28:33;;;;;;;11.20;5.10;;;;;;;;;;5071805;28;20077;-63
2022/04/28 08:31:00;;;;;;;10.95;4.90;;;;;;;;;;5070251;28;20127;-62
2022/04/28 08:33:26;;;;;;;10.20;5.05;;;;;;;;;;5072835;28;20048;-63
2022/04/28 08:35:52;;;;;;;9.02;4.95;;;;;;;;;;5070773;28;20086;-62
2022/04/28 08:38:18;;;;;;;10.38;4.93;;;;;;;;;;5071275;28;20398;-62
2022/04/28 08:40:48;;;;;;;10.63;5.40;;;;;;;;;;5072357;28;20371;-63
2022/04/28 08:43:15;;;;;;;12.02;5.75;;;;;;;;;;5071496;28;20044;-63
2022/04/28 08:46:50;;;;;;;9.40;4.53;;;;;;;;;;5072282;28;20120;-63
2022/04/28 08:48:30;;;;;;;9.35;5.28;;;;;;;;;;5072091;28;20127;-63
2022/04/28 08:50:57;;;;;;;9.38;5.13;;;;;;;;;;5070264;28;20046;-64
2022/04/28 08:53:23;;;;;;;12.68;5.45;;;;;;;;;;5071051;28;20059;-63
2022/04/28 08:55:49;;;;;;;9.73;5.07;;;;;;;;;;5067588;28;20048;-63
2022/04/28 08:58:15;;;;;;;11.43;4.80;;;;;;;;;;5072536;28;20043;-63
2022/04/28 09:00:41;;;;;;;9.40;5.05;;;;;;;;;;5071331;28;20037;-64
2022/04/28 09:03:07;;;;;;;9.50;4.38;;;;;;;;;;5071791;28;20082;-63
2022/04/28 09:05:33;;;;;;;8.98;5.43;;;;;;;;;;5070397;28;20041;-64
2022/04/28 09:08:00;;;;;;;10.82;4.30;;;;;;;;;;5069114;28;20041;-64
2022/04/28 09:10:28;;;;;;;14.50;4.88;;;;;;;;;;5071156;28;20044;-64
2022/04/28 09:12:57;;;;;;;10.43;4.85;;;;;;;;;;5073542;28;20051;-64
2022/04/28 09:15:23;;;;;;;10.07;3.97;;;;;;;;;;5070954;28;20052;-64
2022/04/28 09:17:49;;;;;;;8.35;3.95;;;;;;;;;;5071702;28;20040;-64
2022/04/28 09:20:15;;;;;;;7.90;3.55;;;;;;;;;;5069574;28;20036;-64
2022/04/28 09:22:42;;;;;;;11.30;3.92;;;;;;;;;;5072503;28;20494;-64
2022/04/28 09:25:09;;;;;;;15.07;4.30;;;;;;;;;;5072685;28;20043;-64
2022/04/28 09:27:35;;;;;;;11.43;3.85;;;;;;;;;;5076424;28;20043;-64
2022/04/28 09:30:01;;;;;;;9.60;3.50;;;;;;;;;;5072266;28;20040;-64
2022/04/28 09:32:28;;;;;;;7.60;3.53;;;;;;;;;;5070428;28;20115;-64
2022/04/28 09:34:55;;;;;;;7.95;3.40;;;;;;;;;;5072483;28;20036;-64
2022/04/28 09:37:22;;;;;;;10.25;3.90;;;;;;;;;;5071295;28;20044;-64
2022/04/28 09:42:39;;;;;;;6.90;3.75;;;;;;;;;;5071032;28;20044;-64
2022/04/28 09:45:06;;;;;;;7.00;3.47;;;;;;;;;;5073358;28;20036;-64
2022/04/28 09:47:32;;;;;;;7.65;3.50;;;;;;;;;;5069642;28;20051;-64
2022/04/28 09:49:59;;;;;;;11.07;3.35;;;;;;;;;;5069881;28;20083;-64
2022/04/28 09:52:25;;;;;;;8.77;3.22;;;;;;;;;;5071623;28;20051;-64
2022/04/28 09:54:51;;;;;;;9.30;3.38;;;;;;;;;;5071262;28;20040;-64
2022/04/28 09:57:21;;;;;;;6.65;3.03;;;;;;;;;;5068653;28;20045;-63
2022/04/28 09:59:49;;;;;;;11.07;3.20;;;;;;;;;;5048738;28;20396;-64
2022/04/28 10:02:16;;;;;;;6.90;2.92;;;;;;;;;;5052611;28;20049;-64
2022/04/28 10:04:43;;;;;;;6.25;3.20;;;;;;;;;;5050612;28;20075;-63
2022/04/28 10:07:09;;;;;;;8.45;3.20;;;;;;;;;;5051035;28;20059;-64
2022/04/28 10:09:36;;;;;;;5.22;2.75;;;;;;;;;;5049426;28;20494;-65
2022/04/28 10:12:04;;;;;;;8.13;3.05;;;;;;;;;;5049918;28;20037;-65
2022/04/28 10:14:30;;;;;;;7.88;2.85;;;;;;;;;;5049466;28;20047;-64
2022/04/28 10:16:57;;;;;;;8.00;2.88;;;;;;;;;;5048147;28;20406;-65
2022/04/28 10:19:25;;;;;;;5.97;2.72;;;;;;;;;;5043714;28;20080;-64
2022/04/28 10:21:52;;;;;;;7.97;3.28;;;;;;;;;;5052398;28;20039;-64
2022/04/28 10:32:56;;;;;;;5.90;2.88;;;;;;;;;;5052564;28;20041;-64
2022/04/28 10:35:34;;;;;;;5.25;3.08;;;;;;;;;;5049344;28;20045;-64
2022/04/28 10:38:09;;;;;;;8.43;3.20;;;;;;;;;;5050615;28;20033;-64
2022/04/28 10:40:39;;;;;;;7.40;2.95;;;;;;;;;;5048721;28;20037;-64
2022/04/28 10:43:18;;;;;;;6.30;2.97;;;;;;;;;;5035489;28;20068;-64
2022/04/28 10:45:45;;;;;;;8.40;3.70;;;;;;;;;;5041131;28;20079;-64
2022/04/28 10:48:28;;;;;;;10.05;4.07;;;;;;;;;;5048650;28;20041;-65
2022/04/28 10:51:11;;;;;;;10.40;3.60;;;;;;;;;;5048954;28;20044;-64
2022/04/28 10:53:55;;;;;;;9.10;3.35;;;;;;;;;;5051088;28;20047;-64
2022/04/28 10:56:21;;;;;;;11.40;4.30;;;;;;;;;;5052966;28;20106;-64
2022/04/28 10:58:47;;;;;;;8.68;3.97;;;;;;;;;;5049062;28;20033;-64
2022/04/28 11:01:27;;;;;;;8.48;4.00;;;;;;;;;;5041525;28;20056;-64
2022/04/28 11:03:57;;;;;;;7.68;3.70;;;;;;;;;;5056073;28;20048;-64
2022/04/28 11:06:43;;;;;;;10.23;3.47;;;;;;;;;;5051383;28;20088;-64
2022/04/28 11:09:09;;;;;;;10.05;3.60;;;;;;;;;;5037706;28;20084;-64
2022/04/28 11:11:43;;;;;;;9.05;4.03;;;;;;;;;;5050960;28;20507;-64
2022/04/28 11:14:09;;;;;;;11.00;3.97;;;;;;;;;;5042489;28;20033;-64
2022/04/28 11:16:35;;;;;;;10.32;4.20;;;;;;;;;;5048847;28;20524;-64
2022/04/28 11:19:02;;;;;;;11.23;4.25;;;;;;;;;;5050488;28;20505;-64
2022/04/28 11:21:28;;;;;;;12.18;4.35;;;;;;;;;;5048909;28;20033;-64
2022/04/28 11:23:55;;;;;;;9.00;4.68;;;;;;;;;;5050490;28;20037;-64
2022/04/28 11:26:24;;;;;;;12.73;4.45;;;;;;;;;;5050146;28;20075;-64
2022/04/28 11:28:51;;;;;;;10.60;4.13;;;;;;;;;;5043512;28;20091;-64
2022/04/28 11:31:18;;;;;;;9.68;4.50;;;;;;;;;;5049053;28;20376;-64
2022/04/28 11:33:46;;;;;;;7.65;4.28;;;;;;;;;;5049872;28;20033;-64
2022/04/28 11:36:16;;;;;;;7.72;4.32;;;;;;;;;;5051061;28;20044;-64
2022/04/28 11:38:49;;;;;;;10.50;4.32;;;;;;;;;;5050182;28;20032;-64
2022/04/28 11:41:15;;;;;;;10.15;5.03;;;;;;;;;;5050971;28;20049;-64
2022/04/28 11:43:41;;;;;;;10.80;4.72;;;;;;;;;;5052800;28;20479;-64
2022/04/28 11:46:07;;;;;;;8.93;4.72;;;;;;;;;;5052831;28;20037;-64
2022/04/28 11:48:35;;;;;;;10.25;4.32;;;;;;;;;;5051420;28;20139;-64
2022/04/28 11:51:02;;;;;;;10.90;4.65;;;;;;;;;;5052733;28;20453;-64
2022/04/28 11:53:38;;;;;;;9.43;4.60;;;;;;;;;;5053305;28;20556;-64
2022/04/28 11:56:13;;;;;;;8.27;4.70;;;;;;;;;;5051274;28;20037;-64
2022/04/28 11:58:39;;;;;;;14.15;5.15;;;;;;;;;;5052548;28;20036;-64
2022/04/28 12:01:05;;;;;;;13.50;5.28;;;;;;;;;;5052573;28;20040;-64
2022/04/28 12:03:31;;;;;;;10.07;5.20;;;;;;;;;;5056378;28;20037;-64
2022/04/28 12:05:57;;;;;;;9.63;5.20;;;;;;;;;;5053008;28;20036;-64
2022/04/28 12:08:24;;;;;;;10.00;4.60;;;;;;;;;;5048370;28;20461;-64
2022/04/28 12:19:19;;;;;;;8.73;4.90;;;;;;;;;;5051734;28;20049;-64
2022/04/28 12:19:19;;;;;;;12.98;5.03;;;;;;;;;;5049720;28;20033;-64
2022/04/28 12:21:45;;;;;;;9.25;4.65;;;;;;;;;;5048775;28;20044;-64
2022/04/28 12:24:12;;;;;;;9.77;5.00;;;;;;;;;;5053141;28;20029;-64
2022/04/28 12:26:40;;;;;;;8.77;4.90;;;;;;;;;;5052795;28;20048;-64
2022/04/28 12:29:11;;;;;;;10.27;4.93;;;;;;;;;;5044041;28;20447;-64
2022/04/28 12:31:37;;;;;;;11.20;4.70;;;;;;;;;;5052512;28;20399;-64
2022/04/28 12:34:14;;;;;;;9.57;4.80;;;;;;;;;;5057537;28;20060;-64
2022/04/28 12:36:44;;;;;;;14.82;5.78;;;;;;;;;;5049949;28;20044;-64
2022/04/28 12:39:10;;;;;;;10.00;5.17;;;;;;;;;;5055431;28;20563;-64
2022/04/28 12:41:41;;;;;;;11.43;4.80;;;;;;;;;;5050705;28;20063;-64
2022/04/28 12:44:07;;;;;;;9.07;4.57;;;;;;;;;;5053428;28;20041;-64
2022/04/28 12:46:34;;;;;;;14.85;5.40;;;;;;;;;;5052293;28;20045;-64
2022/04/28 12:49:04;;;;;;;13.50;5.38;;;;;;;;;;5052313;28;20029;-64
2022/04/28 12:51:31;;;;;;;14.52;5.07;;;;;;;;;;5050864;28;20565;-65
2022/04/28 12:54:11;;;;;;;9.15;5.10;;;;;;;;;;5052336;28;20119;-65
2022/04/28 12:56:37;;;;;;;11.35;5.05;;;;;;;;;;5051893;28;20037;-64
2022/04/28 12:59:10;;;;;;;11.80;5.15;;;;;;;;;;5047829;28;20045;-64
2022/04/28 13:01:37;;;;;;;7.95;4.80;;;;;;;;;;5049796;28;20037;-64
2022/04/28 13:04:05;;;;;;;14.63;5.68;;;;;;;;;;5050935;28;20151;-64
2022/04/28 13:06:32;;;;;;;11.40;4.70;;;;;;;;;;5051740;28;20068;-64
2022/04/28 13:08:59;;;;;;;10.27;5.25;;;;;;;;;;5050644;28;20051;-64
2022/04/28 13:11:29;;;;;;;10.93;5.10;;;;;;;;;;5033222;28;20073;-64
2022/04/28 13:13:55;;;;;;;13.48;4.97;;;;;;;;;;5040337;28;20037;-65
2022/04/28 13:16:22;;;;;;;10.55;5.18;;;;;;;;;;5051818;28;20041;-65
2022/04/28 13:18:48;;;;;;;13.07;5.40;;;;;;;;;;5052959;28;20494;-65
2022/04/28 13:21:15;;;;;;;10.82;5.18;;;;;;;;;;5052017;28;20410;-64
2022/04/28 13:23:42;;;;;;;14.45;5.88;;;;;;;;;;5052521;28;20041;-65
2022/04/28 13:26:09;;;;;;;13.05;5.18;;;;;;;;;;5052719;28;20113;-64
2022/04/28 13:28:35;;;;;;;12.88;5.25;;;;;;;;;;5053709;22;20042;-63
2022/04/28 13:31:01;;;;;;;16.60;5.20;;;;;;;;;;5025535;28;20120;-63
2022/04/28 13:33:27;;;;;;;10.85;5.22;;;;;;;;;;5030645;28;20479;-63
2022/04/28 13:35:53;;;;;;;13.60;5.15;;;;;;;;;;5031436;28;20033;-63
2022/04/28 13:38:20;;;;;;;14.52;4.75;;;;;;;;;;5013474;28;20132;-63
2022/04/28 13:40:46;;;;;;;11.48;5.10;;;;;;;;;;5013888;28;20068;-63
2022/04/28 13:43:12;;;;;;;12.25;5.07;;;;;;;;;;5028849;28;20048;-63
2022/04/28 13:45:38;;;;;;;11.00;5.00;;;;;;;;;;5019451;28;20037;-63
2022/04/28 13:48:04;;;;;;;13.27;4.85;;;;;;;;;;5008999;28;20491;-63
2022/04/28 13:50:30;;;;;;;11.77;5.10;;;;;;;;;;5027679;28;20037;-63
2022/04/28 13:52:56;;;;;;;11.45;4.63;;;;;;;;;;5025411;28;20096;-63
2022/04/28 13:55:22;;;;;;;16.25;5.45;;;;;;;;;;5019568;28;20041;-62
2022/04/28 13:57:48;;;;;;;14.80;4.90;;;;;;;;;;5027080;28;20042;-63
2022/04/28 14:00:15;;;;;;;21.95;5.07;;;;;;;;;;5012113;28;20037;-63
2022/04/28 14:02:41;;;;;;;12.57;5.00;;;;;;;;;;5024319;28;20072;-63
2022/04/28 14:05:08;;;;;;;12.48;5.13;;;;;;;;;;5030083;28;20511;-62
2022/04/28 14:07:36;;;;;;;7.70;4.43;;;;;;;;;;5021099;28;21875;-63
2022/04/28 14:10:04;;;;;;;11.63;4.85;;;;;;;;;;5011907;28;20041;-63
2022/04/28 14:12:30;;;;;;;13.25;4.82;;;;;;;;;;5014802;28;20049;-63
2022/04/28 14:14:56;;;;;;;12.90;4.50;;;;;;;;;;5021706;28;20030;-63
2022/04/28 14:17:22;;;;;;;9.73;4.10;;;;;;;;;;5025653;28;20052;-63
2022/04/28 14:19:48;;;;;;;9.82;4.68;;;;;;;;;;5025725;28;20041;-62
2022/04/28 14:22:17;;;;;;;10.05;5.07;;;;;;;;;;5014105;28;20034;-62
2022/04/28 14:24:46;;;;;;;12.95;5.10;;;;;;;;;;5030939;28;20406;-63
2022/04/28 14:27:12;;;;;;;12.65;5.20;;;;;;;;;;5023563;28;20092;-62
2022/04/28 14:29:39;;;;;;;9.70;4.07;;;;;;;;;;5021487;28;20040;-63
2022/04/28 14:32:05;;;;;;;11.10;4.55;;;;;;;;;;5024705;28;20048;-63
2022/04/28 14:34:31;;;;;;;11.95;4.80;;;;;;;;;;5021966;28;20479;-63
2022/04/28 14:36:57;;;;;;;14.90;5.43;;;;;;;;;;5021918;28;20045;-63
2022/04/28 14:39:23;;;;;;;10.73;4.45;;;;;;;;;;5022691;28;20115;-63
2022/04/28 14:41:50;;;;;;;9.80;4.82;;;;;;;;;;5021263;28;20060;-63
2022/04/28 14:44:16;;;;;;;11.80;4.88;;;;;;;;;;5021215;28;20092;-63
2022/04/28 14:46:45;;;;;;;15.35;5.85;;;;;;;;;;5025907;28;20120;-63
2022/04/28 14:54:41;;;;;;;8.80;4.72;;;;;;;;;;5019439;28;20068;-63
2022/04/28 14:57:07;;;;;;;10.35;4.80;;;;;;;;;;5024707;28;20033;-63
2022/04/28 14:59:33;;;;;;;10.80;4.68;;;;;;;;;;5021405;28;20040;-63
2022/04/28 15:01:59;;;;;;;12.82;4.35;;;;;;;;;;5024478;28;20041;-63
2022/04/28 15:04:25;;;;;;;11.25;4.88;;;;;;;;;;5027628;28;20045;-63
2022/04/28 15:06:51;;;;;;;9.75;5.00;;;;;;;;;;5017812;28;20114;-63
2022/04/28 15:09:18;;;;;;;12.25;5.07;;;;;;;;;;5027692;28;20033;-63